VECC Airport Information

Runway Information
Runway 01L Length 7871 ft width 150 ft
Elevation 19 ft Threshold 0 ft Heading 6
Runway 19R Length 7871 ft Width 150 ft
Elevation 19 ft Threshold 0 ft Heading 186
Runway 01R Length 11900 ft width 150 ft
Elevation 20 ft Threshold 0 ft Heading 6
Runway 19L Length 11900 ft Width 150 ft
Elevation 19 ft Threshold 1390 ft Heading 186
Airport Frequencies
Type A/G Name KOLKATA RD Frequency 127.3 MHZ
Type ACC Name KOLKATA CO Frequency 119.3 MHZ
Type APP Name KOLKATA AP Frequency 127.9 MHZ
Type APP CONTRO Name KOLKATA CO Frequency 132.45 MHZ
Type ATIS Name ATIS Frequency 126.4 MHZ
Type GND Name KOLKATA GN Frequency 121.9 MHZ
Type RADAR Name Feeder ARE Frequency 127.3 MHZ
Type TWR Name KOLKATA TW Frequency 118.1 MHZ
Airport Navaids
Type VOR-DME Name Kolkata Frequency 112500 KHZ
Type NDB Name Kolkata Frequency 385 KHZ
Airport Weather Information & NOTAM
ADDS - METARS form results

(1622 UTC 07 May 2021)
Data provider http://aviationweather.gov/metar/data/
 
METAR text: VECC 071600Z 13003KT 3500 HZ FEW020 26/22 Q1011 NOSIG
Conditions at: VECC (CALCUTTA/DUM DUM, IN) observed 1600 UTC 07 May 2021
Temperature: 26.0°C (79°F)
Dewpoint: 22.0°C (72°F) [RH = 79%]
Pressure (altimeter): 29.85 inches Hg (1011.0 mb)
Winds: from the SE (130 degrees) at 3 MPH (3 knots; 1.5 m/s)
Visibility: 2.17 miles (3.49 km)
Ceiling: at least 12,000 feet AGL
Clouds: few clouds at 2000 feet AGL
Weather: HZ  (haze)

METAR text: VECC 071530Z 12004KT 3500 HZ FEW020 27/22 Q1010 NOSIG
Conditions at: VECC (CALCUTTA/DUM DUM, IN) observed 1530 UTC 07 May 2021
Temperature: 27.0°C (81°F)
Dewpoint: 22.0°C (72°F) [RH = 74%]
Pressure (altimeter): 29.82 inches Hg (1010.0 mb)
Winds: from the ESE (120 degrees) at 5 MPH (4 knots; 2.1 m/s)
Visibility: 2.17 miles (3.49 km)
Ceiling: at least 12,000 feet AGL
Clouds: few clouds at 2000 feet AGL
Weather: HZ  (haze)

Forecast for: VECC (CALCUTTA/DUM DUM, IN)
Text: TAF VECC 071400Z 0715/0724 19006KT 3500 HZ FEW020 SCT100
Forecast period: 1500 to 2200 UTC 07 May 2021
Forecast type: FROM: standard forecast or significant change
Winds: from the S (190 degrees) at 7 MPH (6 knots; 3.1 m/s)
Visibility: 2.17 miles (3.49 km)
Ceiling: at least 12,000 feet AGL
Clouds: few clouds at 2000 feet AGL
scattered clouds at 10000 feet AGL
Weather: HZ  (haze)
Text: BECMG 0722/0724 2500 -RA BR SCT015 BKN100
Forecast period: 2200 UTC 07 May 2021 to 0000 UTC 08 May 2021
Forecast type: BECOMING: Conditions expected to become as follows by 0000 UTC 08 May 2021
Winds: from the S (190 degrees) at 7 MPH (6 knots; 3.1 m/s)
Visibility: 1.55 miles (2.49 km)
Ceiling: 10000 feet AGL
Clouds: scattered clouds at 1500 feet AGL
broken clouds at 10000 feet AGL
Weather: -RA BR  (light rain, mist)